Hamada, Japan

10:15 PM JST on July 28, 2014 (GMT +0900)
Iwakuni Marine Corps Air Station (RJOI) Elev 7 ft | 34.14 °N, 132.24 °E | Change Station

Current weather conditions updated 20 minutes ago

Scattered Clouds
Scattered Clouds
77 °F
Feels Like 77 °F
N
7
Wind Variable Wind from WNW

Tomorrow is forecast to be nearly the same temperature as today.

Today
High -- | Low -- °F
--% Chance of Precip.
Yesterday
High -- | Low -- °F
Precip. -- in
5:17 AM 7:18 PM
New Moon, 2% visible
Pressure 29.80 in
Visibility 6.2 miles
Clouds Scattered Clouds 23000 ft
Dew Point 63 °F
Humidity 62%
Rainfall 0.00 in
Snow Depth Not available.
UV 0 out of 12
Pollen Not available.
Air Quality Not available.
Flu Activity Not available.
METAR RJOI 281255Z 30006KT 9999 SCT230 25/17 A2980 RMK SLP090 T02500172

More Conditions Fewer Conditions

Pressure 29.80 in
Visibility 6.2 miles
Clouds Scattered Clouds 23000 ft
Dew Point 63 °F
Humidity 62%
Rainfall 0.00 in
Snow Depth Not available.
UV 0 out of 12
Pollen Not available.
Air Quality Not available.
Flu Activity Not available.
METAR RJOI 281255Z 30006KT 9999 SCT230 25/17 A2980 RMK SLP090 T02500172

More Conditions Fewer Conditions

10-Day Weather Forecast

Almanac

Astronomy

Jul. 28, 2014 Rise Set
Actual Time 5:17 AM JST 7:18 PM JST
Civil Twilight 4:49 AM JST 7:46 PM JST
Nautical Twilight 4:15 AM JST 8:20 PM JST
Astronomical Twilight 3:39 AM JST 8:56 PM JST
Moon 6:20 AM JST 7:46 PM JST
Length of Visible Light 14h 56m
Length of Day
14h 00m
Tomorrow will be 1m 32s shorter.
New Moon, 2% of the Moon is Illuminated
Today
New Moon
Aug 3
First Quarter
Aug 10
Full
Aug 17
Last Quarter
Aug 25
New

Yesterday's Extremes

Country Highs Country Lows

Community

WunderPhotos

Upload Photos

1,738,317 photos uploaded!

Nearby

Snow Depth

Not available.

Earthquake Activity

City Distance Mag. Time & Date
No recent earthquake activity has been reported nearby.
Minimum magnitude displayed is 2.5.

Coastal Water Temperatures

Place Temperature
No Stations Reporting

Nearby Weather Stations

There are no personal weather stations in this area.